Kezdőlap
METAR-TAF:

METAR-TAF

Repülőterek :

Savannakhet, Laosz

földrajzi szélesség: 16-33-24N, földrajzi hosszúság: 104-45-34E, magasság: 155 m

Jelenlegi meteorológiai megfigyelések

A jelentés 7 órával és 11 perccel ezelõtt készült, 12:00 UTC
Délkeleti szél 2 kt
Hőmérséklet 29°C
Páratartalom 84%
Légköri nyomás 1004 hPa
Látótávolság: 5000 m
Kevés felhő 1600 lábon, Cumulonimbus.
Szakadozott felhőzet 10000 lábon
zivatar,

METAR: VLSK 221200Z 14002KT 5000 TS FEW016CB BKN100 29/26 Q1004 NOSIG

Idő: 02:11 (19:11 UTC)

Előrejelzés

A jelentés 2 órával és 11 perccel ezelõtt készült, 17:00 UTC
Az előrejelzés 22-én 18 óra UTC és 23-én 18 óra UTC között érvényes
Délnyugati szél 4 kt
Látótávolság: 3000 m
Szórványos felhőzet 1600 lábon
Szakadozott felhőzet 9300 lábon
Párásság,

TAF: VLSK 221700Z 2218/2318 22004KT 3000 BR SCT016 BKN093

Meteorológiai megfigyelések és előrejelzések több, mint 4000 repülőtéren (METAR és TAF jelentéseket).

A térképen piros és sárga pontok jelzik az elérhető meteorológiai állomásokat.

Mozgassa az egeret a pont fölött, hogy megjelenjen az állomás neve.

Azután kattintson az időjárási megfigyelések és előrejelzések megtekintéséhez.

A térkép megváltoztatása: kattintson a fekete keresztel jelölt zöld gombra ráközelítéshez, a vonallal jelölt zöld gombra távolításhoz, vagy a zöld nyilakra a szomszédos térképek eléréséhez.


METAR-TAF: